createdAt,value
2023-01-29T00:01:12.532Z,26.70
2023-01-29T00:03:40.704Z,26.60
2023-01-29T00:06:09.841Z,26.60
2023-01-29T00:08:39.145Z,26.50
2023-01-29T00:11:08.713Z,26.50
2023-01-29T00:13:37.614Z,26.60
2023-01-29T00:16:06.021Z,26.80
2023-01-29T00:18:34.262Z,26.90
2023-01-29T00:21:02.512Z,27.00
2023-01-29T00:23:30.885Z,27.00
2023-01-29T00:26:01.232Z,26.90
2023-01-29T00:28:29.576Z,26.80
2023-01-29T00:30:57.934Z,26.80
2023-01-29T00:33:26.301Z,26.80
2023-01-29T00:35:54.483Z,26.80
2023-01-29T00:38:22.787Z,26.70
2023-01-29T00:40:51.216Z,26.70
2023-01-29T00:43:19.539Z,26.80
2023-01-29T00:45:47.862Z,26.70
2023-01-29T00:48:16.055Z,26.60
2023-01-29T00:50:44.271Z,26.50
2023-01-29T00:53:12.422Z,26.40
2023-01-29T00:55:40.634Z,26.30
2023-01-29T00:58:08.701Z,26.20
2023-01-29T01:00:37.005Z,26.10
2023-01-29T01:03:05.418Z,26.10
2023-01-29T01:05:34.216Z,26.00
2023-01-29T01:08:02.483Z,25.90
2023-01-29T01:10:33.316Z,26.10
2023-01-29T01:13:04.788Z,26.30
2023-01-29T01:15:38.946Z,26.40
2023-01-29T01:18:07.491Z,26.40
2023-01-29T01:20:37.007Z,26.30
2023-01-29T01:23:05.715Z,26.30
2023-01-29T01:25:35.477Z,26.40
2023-01-29T01:28:03.745Z,26.30
2023-01-29T01:30:31.811Z,26.20
2023-01-29T01:33:00.148Z,26.30
2023-01-29T01:35:28.413Z,26.30
2023-01-29T01:37:56.605Z,26.10
2023-01-29T01:40:26.521Z,25.90
2023-01-29T01:42:57.922Z,25.70
2023-01-29T01:45:32.568Z,25.50
2023-01-29T01:48:19.631Z,25.50
2023-01-29T01:50:51.291Z,25.60
2023-01-29T01:53:31.909Z,25.50
2023-01-29T01:56:04.194Z,25.50
2023-01-29T01:58:34.696Z,25.50
2023-01-29T02:01:06.803Z,25.50
2023-01-29T02:03:44.515Z,25.60
2023-01-29T02:06:12.789Z,25.70
2023-01-29T02:09:19.297Z,25.80
2023-01-29T02:11:47.787Z,25.90
2023-01-29T02:14:17.247Z,25.90
2023-01-29T02:16:46.373Z,26.00
2023-01-29T02:19:46.450Z,26.10
2023-01-29T02:22:44.007Z,26.20
2023-01-29T02:25:30.893Z,26.00
2023-01-29T02:28:18.584Z,25.90
2023-01-29T02:30:59.543Z,25.80
2023-01-29T02:33:34.942Z,25.70
2023-01-29T02:36:09.679Z,25.60
2023-01-29T02:39:15.253Z,25.50
2023-01-29T02:42:05.474Z,25.50
2023-01-29T02:45:10.059Z,25.50
2023-01-29T02:47:44.585Z,25.40
2023-01-29T02:50:34.332Z,25.60
2023-01-29T02:53:52.913Z,25.60
2023-01-29T02:56:47.136Z,25.70
2023-01-29T02:59:27.546Z,25.80
2023-01-29T03:02:03.151Z,26.00
2023-01-29T03:04:34.275Z,26.10
2023-01-29T03:07:08.269Z,26.10
2023-01-29T03:09:48.605Z,26.10
2023-01-29T03:12:27.274Z,26.20
2023-01-29T03:14:58.674Z,26.30
2023-01-29T03:17:33.524Z,26.20
2023-01-29T03:20:03.746Z,26.00
2023-01-29T03:22:33.137Z,25.90
2023-01-29T03:25:03.204Z,25.70
2023-01-29T03:27:54.542Z,25.60
2023-01-29T03:30:26.053Z,25.50
2023-01-29T03:33:08.669Z,25.40
2023-01-29T03:35:43.507Z,25.40
2023-01-29T03:38:12.846Z,25.30
2023-01-29T03:40:55.904Z,25.20
2023-01-29T03:43:45.488Z,25.20
2023-01-29T03:46:26.628Z,25.40
2023-01-29T03:49:23.031Z,25.60
2023-01-29T03:52:14.049Z,25.70
2023-01-29T03:55:11.105Z,25.70
2023-01-29T03:57:58.395Z,25.80
2023-01-29T04:00:39.624Z,25.80
2023-01-29T04:03:22.447Z,25.90
2023-01-29T04:06:21.677Z,25.80
2023-01-29T04:09:09.891Z,25.50
2023-01-29T04:11:48.394Z,25.50
2023-01-29T04:14:18.690Z,25.40
2023-01-29T04:16:58.309Z,25.40
2023-01-29T04:19:46.920Z,25.20
2023-01-29T04:22:30.079Z,25.10
2023-01-29T04:25:00.039Z,25.20
2023-01-29T04:27:49.956Z,25.00
2023-01-29T04:30:43.301Z,25.10
2023-01-29T04:33:43.058Z,25.20
2023-01-29T04:36:39.282Z,25.40
2023-01-29T04:39:34.413Z,25.40
2023-01-29T04:42:18.473Z,25.30
2023-01-29T04:45:04.255Z,25.20
2023-01-29T04:47:49.643Z,25.20
2023-01-29T04:50:26.158Z,25.00
2023-01-29T04:53:29.636Z,25.00
2023-01-29T04:56:06.530Z,24.90
2023-01-29T04:58:51.261Z,24.80
2023-01-29T05:01:22.670Z,24.70
2023-01-29T05:03:53.913Z,24.70
2023-01-29T05:06:23.340Z,24.70
2023-01-29T05:08:52.788Z,24.70
2023-01-29T05:11:21.620Z,24.70
2023-01-29T05:13:50.441Z,24.70
2023-01-29T05:16:27.251Z,24.90
2023-01-29T05:18:55.959Z,25.00
2023-01-29T05:21:25.357Z,25.00
2023-01-29T05:24:33.898Z,25.20
2023-01-29T05:27:02.231Z,25.20
2023-01-29T05:29:30.588Z,25.20
2023-01-29T05:31:58.865Z,25.10
2023-01-29T05:34:27.304Z,24.90
2023-01-29T05:36:55.681Z,24.80
2023-01-29T05:39:23.965Z,24.80
2023-01-29T05:41:52.131Z,24.70
2023-01-29T05:44:20.614Z,24.80
2023-01-29T05:46:49.048Z,24.50
2023-01-29T05:49:18.382Z,24.60
2023-01-29T05:51:46.707Z,24.70
2023-01-29T05:54:15.375Z,24.70
2023-01-29T05:56:44.956Z,24.70
2023-01-29T05:59:13.343Z,25.10
2023-01-29T06:01:41.635Z,25.20
2023-01-29T06:04:09.837Z,25.20
2023-01-29T06:06:38.224Z,25.40
2023-01-29T06:09:06.451Z,25.30
2023-01-29T06:11:34.843Z,25.30
2023-01-29T06:14:03.192Z,25.40
2023-01-29T06:16:31.664Z,25.20
2023-01-29T06:18:59.758Z,25.10
2023-01-29T06:21:28.065Z,25.00
2023-01-29T06:23:56.441Z,24.90
2023-01-29T06:26:24.806Z,24.90
2023-01-29T06:28:53.109Z,24.90
2023-01-29T06:31:36.815Z,24.90
2023-01-29T06:34:07.191Z,24.90
2023-01-29T06:36:35.615Z,24.90
2023-01-29T06:39:04.572Z,24.90
2023-01-29T06:41:33.090Z,24.90
2023-01-29T06:44:01.376Z,25.10
2023-01-29T06:46:29.576Z,25.30
2023-01-29T06:49:00.754Z,25.40
2023-01-29T06:51:30.401Z,25.40
2023-01-29T06:53:58.967Z,25.30
2023-01-29T06:56:27.457Z,25.20
2023-01-29T06:58:55.610Z,25.20
2023-01-29T07:01:35.697Z,25.20
2023-01-29T07:04:05.308Z,24.90
2023-01-29T07:06:34.126Z,24.80
2023-01-29T07:09:02.816Z,24.80
2023-01-29T07:11:31.109Z,24.70
2023-01-29T07:13:59.395Z,24.60
2023-01-29T07:16:27.748Z,24.50
2023-01-29T07:18:56.302Z,24.50
2023-01-29T07:21:24.555Z,24.70
2023-01-29T07:23:52.914Z,24.80
2023-01-29T07:26:21.168Z,24.90
2023-01-29T07:28:49.604Z,25.00
2023-01-29T07:31:17.750Z,25.20
2023-01-29T07:33:46.686Z,25.30
2023-01-29T07:36:16.073Z,25.20
2023-01-29T07:38:44.374Z,25.20
2023-01-29T07:41:12.910Z,25.40
2023-01-29T07:43:41.605Z,25.20
2023-01-29T07:46:09.882Z,25.00
2023-01-29T07:48:38.273Z,24.90
2023-01-29T07:51:06.664Z,25.00
2023-01-29T07:53:35.169Z,24.90
2023-01-29T07:56:03.552Z,25.00
2023-01-29T07:58:31.870Z,25.00
2023-01-29T08:01:00.223Z,25.00
2023-01-29T08:03:28.486Z,25.10
2023-01-29T08:05:59.629Z,25.00
2023-01-29T08:08:27.800Z,25.00
2023-01-29T08:10:56.054Z,25.50
2023-01-29T08:13:24.380Z,25.50
2023-01-29T08:15:52.670Z,25.50
2023-01-29T08:18:20.888Z,25.40
2023-01-29T08:20:48.995Z,25.50
2023-01-29T08:23:17.548Z,25.70
2023-01-29T08:25:45.824Z,25.90
2023-01-29T08:28:14.272Z,25.90
2023-01-29T08:30:42.503Z,25.80
2023-01-29T08:33:11.009Z,25.70
2023-01-29T08:35:39.296Z,25.70
2023-01-29T08:38:07.590Z,25.80
2023-01-29T08:40:38.868Z,25.70
2023-01-29T08:43:09.593Z,25.70
2023-01-29T08:45:40.964Z,25.90
2023-01-29T08:48:10.081Z,26.10
2023-01-29T08:50:38.774Z,26.10
2023-01-29T08:53:09.097Z,26.30
2023-01-29T08:55:41.336Z,27.20
2023-01-29T08:58:11.508Z,29.20
2023-01-29T09:00:39.871Z,32.50
2023-01-29T09:03:08.271Z,32.50
2023-01-29T09:05:38.527Z,32.20
2023-01-29T09:08:15.353Z,32.10
2023-01-29T09:10:43.628Z,35.40
2023-01-29T09:13:11.821Z,36.10
2023-01-29T09:15:40.163Z,33.80
2023-01-29T09:18:08.268Z,33.70
2023-01-29T09:20:36.509Z,34.40
2023-01-29T09:23:09.923Z,34.40
2023-01-29T09:25:38.686Z,32.80
2023-01-29T09:28:07.178Z,32.40
2023-01-29T09:30:35.855Z,32.00
2023-01-29T09:33:05.462Z,31.80
2023-01-29T09:35:34.051Z,30.70
2023-01-29T09:38:02.643Z,30.00
2023-01-29T09:40:55.497Z,30.00
2023-01-29T09:43:51.371Z,30.10
2023-01-29T09:46:19.770Z,29.70
2023-01-29T09:48:53.727Z,29.70
2023-01-29T09:51:37.998Z,29.40
2023-01-29T09:54:30.172Z,29.60
2023-01-29T09:56:59.100Z,30.10
2023-01-29T09:59:31.930Z,30.20
2023-01-29T10:02:31.920Z,30.10
2023-01-29T10:05:00.221Z,29.90
2023-01-29T10:07:57.885Z,30.10
2023-01-29T10:10:44.892Z,30.50
2023-01-29T10:13:19.426Z,31.00
2023-01-29T10:16:07.465Z,30.60
2023-01-29T10:19:06.001Z,30.70
2023-01-29T10:21:46.851Z,30.60
2023-01-29T10:24:27.381Z,30.20
2023-01-29T10:26:58.614Z,29.90
2023-01-29T10:29:29.455Z,29.90
2023-01-29T10:32:03.365Z,30.40
2023-01-29T10:34:55.888Z,30.50
2023-01-29T10:37:28.964Z,30.80
2023-01-29T10:40:02.712Z,30.90
2023-01-29T10:42:50.292Z,30.90
2023-01-29T10:45:21.849Z,31.00
2023-01-29T10:48:05.847Z,31.30
2023-01-29T10:50:43.497Z,31.10
2023-01-29T10:53:34.374Z,31.30
2023-01-29T10:56:30.151Z,31.00
2023-01-29T10:59:10.361Z,31.20
2023-01-29T11:01:38.721Z,30.90
2023-01-29T11:04:13.458Z,31.00
2023-01-29T11:06:41.681Z,31.10
2023-01-29T11:09:35.169Z,31.30
2023-01-29T11:12:17.435Z,31.40
2023-01-29T11:15:05.626Z,31.50
2023-01-29T11:17:34.193Z,31.20
2023-01-29T11:20:02.403Z,31.00
2023-01-29T11:22:31.637Z,30.50
2023-01-29T11:25:19.369Z,30.70
2023-01-29T11:27:49.011Z,30.70
2023-01-29T11:30:28.639Z,30.60
2023-01-29T11:33:20.370Z,30.70
2023-01-29T11:35:48.759Z,30.90
2023-01-29T11:38:17.002Z,31.10
2023-01-29T11:40:46.633Z,31.20
2023-01-29T11:43:34.285Z,31.40
2023-01-29T11:46:12.518Z,31.30
2023-01-29T11:48:45.380Z,31.70
2023-01-29T11:51:23.932Z,31.90
2023-01-29T11:54:03.571Z,31.90
2023-01-29T11:56:43.238Z,31.50
2023-01-29T11:59:46.731Z,31.50
2023-01-29T12:02:50.712Z,31.70
2023-01-29T12:05:21.755Z,31.40
2023-01-29T12:07:54.583Z,31.60
2023-01-29T12:10:34.579Z,31.60
2023-01-29T12:13:27.111Z,31.70
2023-01-29T12:16:29.262Z,32.00
2023-01-29T12:19:21.554Z,32.00
2023-01-29T12:21:49.864Z,32.20
2023-01-29T12:24:33.465Z,32.10
2023-01-29T12:27:27.460Z,32.20
2023-01-29T12:30:28.029Z,32.30
2023-01-29T12:33:10.726Z,32.30
2023-01-29T12:36:03.524Z,32.30
2023-01-29T12:38:31.906Z,32.20
2023-01-29T12:41:23.590Z,32.20
2023-01-29T12:44:02.129Z,32.30
2023-01-29T12:46:38.530Z,32.40
2023-01-29T12:49:17.936Z,32.70
2023-01-29T12:52:00.037Z,32.60
2023-01-29T12:54:43.094Z,32.60
2023-01-29T12:57:39.762Z,32.90
2023-01-29T13:00:15.530Z,32.70
2023-01-29T13:03:29.006Z,32.60
2023-01-29T13:06:09.967Z,32.30
2023-01-29T13:08:52.503Z,32.10
2023-01-29T13:11:27.760Z,32.30
2023-01-29T13:14:12.969Z,32.20
2023-01-29T13:16:48.472Z,32.40
2023-01-29T13:19:30.248Z,32.40
2023-01-29T13:22:08.213Z,32.20
2023-01-29T13:24:49.963Z,32.50
2023-01-29T13:27:32.689Z,32.40
2023-01-29T13:30:01.586Z,32.60
2023-01-29T13:32:32.405Z,32.40
2023-01-29T13:35:05.366Z,32.20
2023-01-29T13:37:36.977Z,32.40
2023-01-29T13:40:06.535Z,32.30
2023-01-29T13:42:47.934Z,31.90
2023-01-29T13:45:26.245Z,32.00
2023-01-29T13:48:08.758Z,32.10
2023-01-29T13:50:42.733Z,32.20
2023-01-29T13:53:24.947Z,32.00
2023-01-29T13:55:53.246Z,31.90
2023-01-29T13:58:33.808Z,31.70
2023-01-29T14:01:02.178Z,31.80
2023-01-29T14:03:45.023Z,31.90
2023-01-29T14:06:42.573Z,31.80
2023-01-29T14:09:40.155Z,31.90
2023-01-29T14:12:23.971Z,31.90
2023-01-29T14:15:04.492Z,32.00
2023-01-29T14:17:33.111Z,31.80
2023-01-29T14:20:32.341Z,31.80
2023-01-29T14:23:08.860Z,32.00
2023-01-29T14:25:41.669Z,31.80
2023-01-29T14:28:20.327Z,32.00
2023-01-29T14:30:50.357Z,31.80
2023-01-29T14:33:27.594Z,31.80
2023-01-29T14:35:58.482Z,31.60
2023-01-29T14:38:29.300Z,31.80
2023-01-29T14:41:17.132Z,31.80
2023-01-29T14:43:45.508Z,31.80
2023-01-29T14:46:49.773Z,31.70
2023-01-29T14:49:56.023Z,31.80
2023-01-29T14:52:36.447Z,31.90
2023-01-29T14:55:11.871Z,31.70
2023-01-29T14:57:40.191Z,31.80
2023-01-29T15:00:24.805Z,31.70
2023-01-29T15:03:01.667Z,31.40
2023-01-29T15:05:37.871Z,31.50
2023-01-29T15:08:16.589Z,31.90
2023-01-29T15:10:54.147Z,31.70
2023-01-29T15:13:37.998Z,31.50
2023-01-29T15:16:31.054Z,31.70
2023-01-29T15:19:14.925Z,31.90
2023-01-29T15:22:16.455Z,31.90
2023-01-29T15:24:46.712Z,31.60
2023-01-29T15:27:20.517Z,31.50
2023-01-29T15:29:58.048Z,31.50
2023-01-29T15:32:39.904Z,31.50
2023-01-29T15:35:09.309Z,31.70
2023-01-29T15:37:38.251Z,31.80
2023-01-29T15:40:15.549Z,31.60
2023-01-29T15:42:47.134Z,31.80
2023-01-29T15:45:35.672Z,31.80
2023-01-29T15:48:18.947Z,31.60
2023-01-29T15:50:48.443Z,31.80
2023-01-29T15:53:26.458Z,31.80
2023-01-29T15:55:54.810Z,31.60
2023-01-29T15:58:29.604Z,31.30
2023-01-29T16:01:00.501Z,31.30
2023-01-29T16:03:33.242Z,31.50
2023-01-29T16:06:02.819Z,31.50
2023-01-29T16:08:31.444Z,31.30
2023-01-29T16:11:03.615Z,31.40
2023-01-29T16:13:36.051Z,31.50
2023-01-29T16:16:27.887Z,31.50
2023-01-29T16:19:01.045Z,31.50
2023-01-29T16:21:34.960Z,31.20
2023-01-29T16:24:08.564Z,31.00
2023-01-29T16:26:42.795Z,31.00
2023-01-29T16:29:14.861Z,31.00
2023-01-29T16:31:45.139Z,31.00
2023-01-29T16:34:33.863Z,30.90
2023-01-29T16:37:05.682Z,30.80
2023-01-29T16:39:35.182Z,31.00
2023-01-29T16:42:12.715Z,30.90
2023-01-29T16:44:45.937Z,30.80
2023-01-29T16:47:21.201Z,30.70
2023-01-29T16:50:01.188Z,30.50
2023-01-29T16:52:32.288Z,30.20
2023-01-29T16:55:22.059Z,30.30
2023-01-29T16:57:55.622Z,30.20
2023-01-29T17:00:29.791Z,30.20
2023-01-29T17:03:05.134Z,30.20
2023-01-29T17:05:37.587Z,30.40
2023-01-29T17:08:06.587Z,30.50
2023-01-29T17:10:39.812Z,30.50
2023-01-29T17:13:10.680Z,30.50
2023-01-29T17:15:47.366Z,30.00
2023-01-29T17:18:21.456Z,30.20
2023-01-29T17:20:50.475Z,30.30
2023-01-29T17:23:18.685Z,30.20
2023-01-29T17:25:48.183Z,30.10
2023-01-29T17:28:18.058Z,29.90
2023-01-29T17:30:56.606Z,30.00
2023-01-29T17:33:33.950Z,30.10
2023-01-29T17:36:02.298Z,30.10
2023-01-29T17:38:30.754Z,30.00
2023-01-29T17:41:09.245Z,30.10
2023-01-29T17:43:37.545Z,29.90
2023-01-29T17:46:06.278Z,30.00
2023-01-29T17:48:34.438Z,30.10
2023-01-29T17:51:05.018Z,30.10
2023-01-29T17:53:45.329Z,30.40
2023-01-29T17:56:40.578Z,30.20
2023-01-29T17:59:24.357Z,30.10
2023-01-29T18:01:52.877Z,30.10
2023-01-29T18:04:21.541Z,30.00
2023-01-29T18:06:51.727Z,30.00
2023-01-29T18:09:22.024Z,30.10
2023-01-29T18:11:51.178Z,29.90
2023-01-29T18:14:19.555Z,29.80
2023-01-29T18:16:48.606Z,29.60
2023-01-29T18:19:24.010Z,29.60
2023-01-29T18:21:52.333Z,29.60
2023-01-29T18:24:21.034Z,29.70
2023-01-29T18:26:50.117Z,29.60
2023-01-29T18:29:18.392Z,29.50
2023-01-29T18:31:49.622Z,29.40
2023-01-29T18:34:18.475Z,29.30
2023-01-29T18:36:46.734Z,29.30
2023-01-29T18:39:16.071Z,29.10
2023-01-29T18:41:44.423Z,29.10
2023-01-29T18:44:12.859Z,29.10
2023-01-29T18:46:41.293Z,29.10
2023-01-29T18:49:09.779Z,29.00
2023-01-29T18:51:38.204Z,28.80
2023-01-29T18:54:06.519Z,28.80
2023-01-29T18:56:34.914Z,28.70
2023-01-29T18:59:04.870Z,28.80
2023-01-29T19:01:34.009Z,28.80
2023-01-29T19:04:02.380Z,28.70
2023-01-29T19:06:30.692Z,28.60
2023-01-29T19:08:58.991Z,28.40
2023-01-29T19:11:27.291Z,28.60
2023-01-29T19:13:55.710Z,28.70
2023-01-29T19:16:26.597Z,28.60
2023-01-29T19:18:54.903Z,28.60
2023-01-29T19:21:26.438Z,28.30
2023-01-29T19:23:55.661Z,28.00
2023-01-29T19:26:24.093Z,28.00
2023-01-29T19:28:52.330Z,28.00
2023-01-29T19:31:20.734Z,28.00
2023-01-29T19:33:49.331Z,27.90
2023-01-29T19:36:17.730Z,28.00
2023-01-29T19:38:46.114Z,28.00
2023-01-29T19:41:14.691Z,28.00
2023-01-29T19:43:42.965Z,28.10
2023-01-29T19:46:11.310Z,28.30
2023-01-29T19:48:39.722Z,28.40
2023-01-29T19:51:10.211Z,28.50
2023-01-29T19:53:40.600Z,28.20
2023-01-29T19:56:14.913Z,28.00
2023-01-29T19:58:43.555Z,27.90
2023-01-29T20:01:16.144Z,27.80
2023-01-29T20:03:45.848Z,27.80
2023-01-29T20:06:29.220Z,27.90
2023-01-29T20:08:57.740Z,27.90
2023-01-29T20:11:26.049Z,28.00
2023-01-29T20:13:54.528Z,28.10
2023-01-29T20:16:26.181Z,28.40
2023-01-29T20:18:54.719Z,28.30
2023-01-29T20:21:48.197Z,28.40
2023-01-29T20:24:16.439Z,28.40
2023-01-29T20:26:44.835Z,28.50
2023-01-29T20:29:13.126Z,28.60
2023-01-29T20:31:41.724Z,28.40
2023-01-29T20:34:10.025Z,28.40
2023-01-29T20:36:38.312Z,28.40
2023-01-29T20:39:06.742Z,28.50
2023-01-29T20:41:35.044Z,28.50
2023-01-29T20:44:03.433Z,28.60
2023-01-29T20:46:31.763Z,28.50
2023-01-29T20:49:00.080Z,28.40
2023-01-29T20:51:28.378Z,28.60
2023-01-29T20:53:57.127Z,28.70
2023-01-29T20:56:36.072Z,28.50
2023-01-29T20:59:05.428Z,28.30
2023-01-29T21:01:33.615Z,28.30
2023-01-29T21:04:02.123Z,28.40
2023-01-29T21:06:30.409Z,28.40
2023-01-29T21:08:58.794Z,28.30
2023-01-29T21:11:27.197Z,28.20
2023-01-29T21:13:55.983Z,28.20
2023-01-29T21:16:24.717Z,28.20
2023-01-29T21:18:59.094Z,28.20
2023-01-29T21:21:27.368Z,28.20
2023-01-29T21:23:55.827Z,28.10
2023-01-29T21:26:24.590Z,28.10
2023-01-29T21:28:52.845Z,28.20
2023-01-29T21:31:21.341Z,28.10
2023-01-29T21:33:49.507Z,28.10
2023-01-29T21:36:18.146Z,28.00
2023-01-29T21:38:46.417Z,28.00
2023-01-29T21:41:14.720Z,28.00
2023-01-29T21:43:43.194Z,28.10
2023-01-29T21:46:11.959Z,28.10
2023-01-29T21:48:41.366Z,28.20
2023-01-29T21:51:09.809Z,28.10
2023-01-29T21:53:38.136Z,28.10
2023-01-29T21:56:07.023Z,28.00
2023-01-29T21:58:35.561Z,28.20
2023-01-29T22:01:35.908Z,28.30
2023-01-29T22:03:52.490Z,28.10
2023-01-29T22:06:20.716Z,27.70
2023-01-29T22:08:50.207Z,27.50
2023-01-29T22:11:19.147Z,27.50
2023-01-29T22:13:47.710Z,27.50
2023-01-29T22:16:16.017Z,27.40
2023-01-29T22:18:44.421Z,27.20
2023-01-29T22:21:12.704Z,27.20
2023-01-29T22:23:40.895Z,27.30
2023-01-29T22:26:09.470Z,27.30
2023-01-29T22:28:37.998Z,27.50
2023-01-29T22:31:06.655Z,27.60
2023-01-29T22:33:34.979Z,27.70
2023-01-29T22:36:03.862Z,27.70
2023-01-29T22:38:32.267Z,27.80
2023-01-29T22:41:01.313Z,27.80
2023-01-29T22:43:29.658Z,27.70
2023-01-29T22:45:57.985Z,27.70
2023-01-29T22:48:26.680Z,27.80
2023-01-29T22:50:59.621Z,27.90
2023-01-29T22:53:27.910Z,27.80
2023-01-29T22:55:56.201Z,27.70
2023-01-29T22:58:24.431Z,27.70
2023-01-29T23:00:52.826Z,27.80
2023-01-29T23:03:21.229Z,27.90
2023-01-29T23:05:49.469Z,27.90
2023-01-29T23:08:17.837Z,27.70
2023-01-29T23:10:46.248Z,27.70
2023-01-29T23:13:14.739Z,27.60
2023-01-29T23:15:42.952Z,27.70
2023-01-29T23:18:13.373Z,27.70
2023-01-29T23:20:41.545Z,27.40
2023-01-29T23:23:09.824Z,27.20
2023-01-29T23:25:38.012Z,27.20
2023-01-29T23:28:06.353Z,27.10
2023-01-29T23:30:34.548Z,27.20
2023-01-29T23:33:02.946Z,27.10
2023-01-29T23:35:31.367Z,27.00
2023-01-29T23:37:59.505Z,27.00
2023-01-29T23:40:27.852Z,26.90
2023-01-29T23:42:56.092Z,27.20
2023-01-29T23:45:24.447Z,27.50
2023-01-29T23:47:55.347Z,27.50
2023-01-29T23:50:23.657Z,27.50
2023-01-29T23:52:52.020Z,27.60
2023-01-29T23:55:20.285Z,27.70
2023-01-29T23:57:48.460Z,27.70
